Time;durP1;ratioP1;P1;durP2;ratioP2;P2;SDS_P1;SDS_P2;PMS_P1;PMS_P2;Temp;Humidity;BMP_temperature;BMP_pressure;BME280_temperature;BME280_humidity;BME280_pressure;Samples;Min_cycle;Max_cycle;Signal;HPM_P1;HPM_P2
2021/04/19 00:00:58;;;;;;;3.30;2.75;;;13.40;70.70;;;;;;5113584;28;20074;-45
2021/04/19 00:03:23;;;;;;;3.80;2.50;;;13.40;70.70;;;;;;5112911;28;20562;-46
2021/04/19 00:05:49;;;;;;;3.58;2.60;;;13.40;70.70;;;;;;5111717;28;20062;-45
2021/04/19 00:08:15;;;;;;;3.42;2.63;;;13.40;70.70;;;;;;5112971;28;20477;-48
2021/04/19 00:10:41;;;;;;;3.08;2.50;;;13.40;70.70;;;;;;5113725;28;20048;-53
2021/04/19 00:13:07;;;;;;;4.20;2.80;;;13.40;70.70;;;;;;5113487;28;20069;-47
2021/04/19 00:15:33;;;;;;;3.67;2.42;;;13.40;70.70;;;;;;5112881;28;20164;-48
2021/04/19 00:17:59;;;;;;;2.83;2.35;;;13.40;70.70;;;;;;5112871;28;20047;-49
2021/04/19 00:20:25;;;;;;;3.50;2.83;;;13.40;70.70;;;;;;5112669;28;20127;-48
2021/04/19 00:22:51;;;;;;;3.25;2.05;;;13.40;70.80;;;;;;5112849;28;20197;-44
2021/04/19 00:25:17;;;;;;;4.38;2.60;;;13.40;70.80;;;;;;5113200;28;20400;-46
2021/04/19 00:27:44;;;;;;;3.03;2.55;;;13.40;70.80;;;;;;5113332;28;20142;-48
2021/04/19 00:30:10;;;;;;;5.10;2.88;;;13.40;70.80;;;;;;5112868;28;20043;-49
2021/04/19 00:32:36;;;;;;;3.80;2.83;;;13.40;70.80;;;;;;5111634;28;20048;-46
2021/04/19 00:35:07;;;;;;;2.55;2.15;;;13.40;70.80;;;;;;5112518;28;20095;-49
2021/04/19 00:37:34;;;;;;;3.40;2.15;;;13.40;70.80;;;;;;5112846;28;20046;-51
2021/04/19 00:40:00;;;;;;;5.50;2.40;;;13.40;70.80;;;;;;5113293;28;20054;-46
2021/04/19 00:42:26;;;;;;;5.95;3.10;;;13.30;70.80;;;;;;5112712;28;20070;-46
2021/04/19 00:44:52;;;;;;;4.05;2.83;;;13.40;70.80;;;;;;5113011;28;20047;-46
2021/04/19 00:47:18;;;;;;;3.45;2.67;;;13.40;70.80;;;;;;5112861;28;20043;-51
2021/04/19 00:49:44;;;;;;;3.20;2.35;;;13.40;70.80;;;;;;5112298;28;20380;-49
2021/04/19 00:52:10;;;;;;;4.05;2.22;;;13.40;70.90;;;;;;5112702;28;20074;-44
2021/04/19 00:54:36;;;;;;;3.38;2.47;;;13.30;70.80;;;;;;5113246;28;20048;-47
2021/04/19 00:57:03;;;;;;;3.15;2.38;;;13.40;70.90;;;;;;5112687;28;20044;-44
2021/04/19 00:59:28;;;;;;;3.85;2.55;;;13.40;70.90;;;;;;5113090;28;20070;-45
2021/04/19 01:01:54;;;;;;;2.80;2.45;;;13.40;70.90;;;;;;5111794;28;20483;-50
2021/04/19 01:04:21;;;;;;;3.50;2.88;;;13.30;70.80;;;;;;5112242;28;20499;-49
2021/04/19 01:06:48;;;;;;;3.03;2.50;;;13.30;70.80;;;;;;5112761;28;20047;-50
2021/04/19 01:09:14;;;;;;;3.33;2.60;;;13.30;70.80;;;;;;5112526;28;20470;-50
2021/04/19 01:11:40;;;;;;;2.53;2.03;;;13.30;70.80;;;;;;5112902;28;20044;-46
2021/04/19 01:14:06;;;;;;;3.17;2.45;;;13.30;70.90;;;;;;5111917;28;20411;-48
2021/04/19 01:16:32;;;;;;;3.20;2.33;;;13.30;70.90;;;;;;5112362;28;20539;-52
2021/04/19 01:18:58;;;;;;;3.05;2.53;;;13.30;70.80;;;;;;5112790;28;20040;-48
2021/04/19 01:21:24;;;;;;;2.55;2.15;;;13.30;70.90;;;;;;5111728;28;20506;-47
2021/04/19 01:23:50;;;;;;;3.22;2.42;;;13.30;70.90;;;;;;5112476;28;20040;-46
2021/04/19 01:26:16;;;;;;;3.58;2.70;;;13.30;70.90;;;;;;5110301;28;20040;-49
2021/04/19 01:28:41;;;;;;;2.97;2.15;;;13.30;70.90;;;;;;5112752;28;20040;-51
2021/04/19 01:31:07;;;;;;;3.00;2.45;;;13.30;70.90;;;;;;5112213;28;20368;-50
2021/04/19 01:33:33;;;;;;;3.80;2.63;;;13.30;70.90;;;;;;5111327;28;20127;-48
2021/04/19 01:35:59;;;;;;;5.45;2.95;;;13.30;70.90;;;;;;5114660;28;20042;-45
2021/04/19 01:38:25;;;;;;;2.55;2.35;;;13.30;70.90;;;;;;5115963;28;20048;-48
2021/04/19 01:40:55;;;;;;;3.83;2.88;;;13.30;70.90;;;;;;5116297;28;20088;-51
2021/04/19 01:43:23;;;;;;;2.92;2.25;;;13.30;70.90;;;;;;5115947;28;20052;-48
2021/04/19 01:45:50;;;;;;;3.50;2.72;;;13.30;70.90;;;;;;5116415;28;20122;-48
2021/04/19 01:48:19;;;;;;;3.95;2.30;;;13.30;71.00;;;;;;5115672;28;20126;-51
2021/04/19 01:50:44;;;;;;;3.33;2.65;;;13.30;70.90;;;;;;5115429;28;20654;-47
2021/04/19 01:53:10;;;;;;;3.45;2.58;;;13.30;70.90;;;;;;5116175;28;20086;-50
2021/04/19 01:55:36;;;;;;;3.40;2.50;;;13.30;70.90;;;;;;5115347;28;20074;-47
2021/04/19 01:58:12;;;;;;;3.22;2.42;;;13.30;70.90;;;;;;5115534;28;20130;-46
2021/04/19 02:00:41;;;;;;;3.65;2.97;;;13.30;71.00;;;;;;5115926;28;20048;-49
2021/04/19 02:03:06;;;;;;;2.90;2.30;;;13.30;71.00;;;;;;5115565;28;20035;-50
2021/04/19 02:05:38;;;;;;;3.10;2.40;;;13.30;71.00;;;;;;5115569;28;20055;-47
2021/04/19 02:08:26;;;;;;;4.15;3.17;;;13.30;71.00;;;;;;5114910;28;20105;-49
2021/04/19 02:11:25;;;;;;;2.55;2.30;;;13.30;71.00;;;;;;5115566;28;20043;-48
2021/04/19 02:13:58;;;;;;;3.65;2.63;;;13.30;71.00;;;;;;5115136;28;20505;-46
2021/04/19 02:17:02;;;;;;;3.63;2.60;;;13.30;71.00;;;;;;5115397;28;20054;-48
2021/04/19 02:19:47;;;;;;;4.20;2.60;;;13.30;71.00;;;;;;5109072;28;20044;-50
2021/04/19 02:22:50;;;;;;;4.18;2.60;;;13.30;71.00;;;;;;5114831;28;20039;-51
2021/04/19 02:25:23;;;;;;;3.95;2.60;;;13.30;71.00;;;;;;5067409;28;20056;-49
2021/04/19 02:27:58;;;;;;;3.95;2.85;;;13.30;71.10;;;;;;5072319;28;20087;-49
2021/04/19 02:30:26;;;;;;;;;;;13.30;71.10;;;;;;5072152;28;20060;-46
2021/04/19 02:32:53;;;;;;;2.97;2.60;;;13.30;71.10;;;;;;5072504;28;19920;-50
2021/04/19 02:35:22;;;;;;;3.80;2.72;;;13.20;71.00;;;;;;5072182;28;20536;-44
2021/04/19 02:37:52;;;;;;;3.40;2.63;;;13.30;71.10;;;;;;5071520;28;20048;-47
2021/04/19 02:40:18;;;;;;;3.80;2.40;;;13.20;71.00;;;;;;5071923;28;20044;-48
2021/04/19 02:42:49;;;;;;;3.17;2.40;;;13.30;71.10;;;;;;5071990;28;20099;-48
2021/04/19 02:45:15;;;;;;;3.25;2.80;;;13.20;71.00;;;;;;5071656;28;20060;-49
2021/04/19 02:47:45;;;;;;;3.55;2.85;;;13.30;71.10;;;;;;5070990;28;20044;-51
2021/04/19 02:50:15;;;;;;;3.38;2.85;;;13.30;71.10;;;;;;5071500;28;20577;-47
2021/04/19 02:52:42;;;;;;;4.35;3.33;;;13.20;71.10;;;;;;5071810;28;20052;-50
2021/04/19 02:55:10;;;;;;;3.90;2.95;;;13.20;71.10;;;;;;5071462;28;20102;-47
2021/04/19 02:57:42;;;;;;;4.25;3.15;;;13.30;71.10;;;;;;5071940;28;20048;-45
2021/04/19 03:00:08;;;;;;;3.78;3.00;;;13.20;71.10;;;;;;5071431;28;20044;-45
2021/04/19 03:02:36;;;;;;;3.55;3.00;;;13.20;71.10;;;;;;5091291;28;20055;-47
2021/04/19 03:05:03;;;;;;;4.68;2.97;;;13.30;71.20;;;;;;5094278;28;20377;-46
2021/04/19 03:07:37;;;;;;;3.22;2.65;;;13.30;71.20;;;;;;5113959;28;20049;-44
2021/04/19 03:10:08;;;;;;;4.07;2.92;;;13.20;71.10;;;;;;5114428;28;20067;-45
2021/04/19 03:12:37;;;;;;;4.93;2.90;;;13.20;71.10;;;;;;5114084;28;20377;-48
2021/04/19 03:15:08;;;;;;;4.22;3.08;;;13.30;71.20;;;;;;5114150;28;20048;-46
2021/04/19 03:17:35;;;;;;;4.47;3.38;;;13.20;71.10;;;;;;5114510;28;20043;-45
2021/04/19 03:20:03;;;;;;;4.35;3.45;;;13.20;71.20;;;;;;5113726;28;20059;-47
2021/04/19 03:22:30;;;;;;;3.50;3.03;;;13.20;71.10;;;;;;5114163;28;20073;-45
2021/04/19 03:24:57;;;;;;;3.03;2.53;;;13.20;71.10;;;;;;5113798;28;20647;-51
2021/04/19 03:27:26;;;;;;;3.50;2.97;;;13.30;71.20;;;;;;5111388;28;20100;-47
2021/04/19 03:29:52;;;;;;;5.28;3.35;;;13.20;71.10;;;;;;5113994;28;20044;-47
2021/04/19 03:32:24;;;;;;;5.00;3.08;;;13.20;71.10;;;;;;5113887;28;20047;-51
2021/04/19 03:34:50;;;;;;;4.05;2.88;;;13.30;71.20;;;;;;5114051;28;20071;-53
2021/04/19 03:37:19;;;;;;;5.43;3.30;;;13.20;71.10;;;;;;5113657;28;20058;-49
2021/04/19 03:39:55;;;;;;;3.67;2.85;;;13.20;71.10;;;;;;5113491;28;20594;-41
2021/04/19 03:42:24;;;;;;;6.28;3.20;;;13.20;71.10;;;;;;5113874;28;20090;-53
2021/04/19 03:44:50;;;;;;;5.03;3.53;;;13.20;71.10;;;;;;5113431;28;20043;-44
2021/04/19 03:47:18;;;;;;;4.03;3.20;;;13.20;71.10;;;;;;5113426;28;20058;-46
2021/04/19 03:49:49;;;;;;;4.50;3.40;;;13.20;71.10;;;;;;5113662;28;20126;-41
2021/04/19 03:52:20;;;;;;;4.75;2.97;;;13.20;71.10;;;;;;5113953;28;20100;-45
2021/04/19 03:54:51;;;;;;;4.10;2.95;;;13.20;71.10;;;;;;5112988;28;20101;-48
2021/04/19 03:57:23;;;;;;;4.45;3.15;;;13.20;71.10;;;;;;5111278;28;20043;-48
2021/04/19 03:59:58;;;;;;;4.05;2.80;;;13.20;71.10;;;;;;5113685;28;20078;-51
2021/04/19 04:02:25;;;;;;;5.63;3.35;;;13.20;71.20;;;;;;5113396;28;20089;-49
2021/04/19 04:04:51;;;;;;;4.47;3.13;;;13.20;71.10;;;;;;5113320;28;20074;-45
2021/04/19 04:07:18;;;;;;;6.70;3.28;;;13.20;71.20;;;;;;5113440;28;20047;-45
2021/04/19 04:09:45;;;;;;;4.07;3.30;;;13.20;71.10;;;;;;5113282;28;20044;-48
2021/04/19 04:12:11;;;;;;;4.57;3.55;;;13.20;71.10;;;;;;5112874;28;20517;-48
2021/04/19 04:14:48;;;;;;;5.07;3.72;;;13.20;71.20;;;;;;5112461;28;21656;-47
2021/04/19 04:17:15;;;;;;;4.13;3.20;;;13.20;71.10;;;;;;5112910;28;20039;-47
2021/04/19 04:19:40;;;;;;;4.25;3.33;;;13.20;71.10;;;;;;5112844;28;20484;-46
2021/04/19 04:22:07;;;;;;;5.95;3.78;;;13.20;71.20;;;;;;5112704;28;20040;-44
2021/04/19 04:24:34;;;;;;;4.47;2.92;;;13.20;71.20;;;;;;5112081;28;20490;-49
2021/04/19 04:27:00;;;;;;;4.50;3.67;;;13.20;71.20;;;;;;5111531;28;21218;-49
2021/04/19 04:29:26;;;;;;;3.80;3.40;;;13.20;71.20;;;;;;5112393;28;20044;-50
2021/04/19 04:31:52;;;;;;;4.60;3.45;;;13.20;71.20;;;;;;5113261;28;20146;-50
2021/04/19 04:34:17;;;;;;;4.32;3.25;;;13.20;71.20;;;;;;5112796;28;20049;-50
2021/04/19 04:36:43;;;;;;;4.20;2.90;;;13.20;71.20;;;;;;5112922;28;20090;-49
2021/04/19 04:39:08;;;;;;;5.40;3.70;;;13.20;71.10;;;;;;5113035;28;20051;-48
2021/04/19 04:41:34;;;;;;;5.85;3.35;;;13.20;71.20;;;;;;5112841;28;20542;-51
2021/04/19 04:44:03;;;;;;;5.43;3.78;;;13.20;71.10;;;;;;5112764;28;20388;-49
2021/04/19 04:46:45;;;;;;;5.03;3.17;;;13.20;71.20;;;;;;5112745;28;20044;-49
2021/04/19 04:49:15;;;;;;;5.22;3.85;;;13.20;71.20;;;;;;5113009;28;20043;-44
2021/04/19 04:51:45;;;;;;;5.10;3.42;;;13.20;71.20;;;;;;5112995;28;20044;-51
2021/04/19 04:54:17;;;;;;;4.70;3.47;;;13.20;71.20;;;;;;5113146;28;20555;-49
2021/04/19 04:56:47;;;;;;;4.68;3.40;;;13.20;71.20;;;;;;5112297;28;20054;-47
2021/04/19 04:59:13;;;;;;;4.15;3.10;;;13.20;71.20;;;;;;5112727;28;20047;-48
2021/04/19 05:01:42;;;;;;;5.30;3.53;;;13.20;71.10;;;;;;5113025;28;20057;-45
2021/04/19 05:04:08;;;;;;;4.72;3.53;;;13.20;71.20;;;;;;5092478;28;20056;-43
2021/04/19 05:06:34;;;;;;;3.83;2.83;;;13.20;71.20;;;;;;5106671;28;20376;-48
2021/04/19 05:09:01;;;;;;;5.60;4.05;;;13.20;71.20;;;;;;5112712;28;20047;-51
2021/04/19 05:11:26;;;;;;;3.80;3.15;;;13.30;71.20;;;;;;5116196;28;20127;-51
2021/04/19 05:14:02;;;;;;;5.32;3.63;;;13.20;71.20;;;;;;5115896;28;20155;-50
2021/04/19 05:16:29;;;;;;;4.43;3.55;;;13.20;71.20;;;;;;5116100;28;20077;-46
2021/04/19 05:19:00;;;;;;;5.13;3.72;;;13.10;71.10;;;;;;5115864;28;20043;-48
2021/04/19 05:21:26;;;;;;;5.03;3.38;;;13.20;71.20;;;;;;5116357;28;20134;-44
2021/04/19 05:23:52;;;;;;;5.18;3.53;;;13.20;71.20;;;;;;5116733;28;20051;-49
2021/04/19 05:26:20;;;;;;;6.05;3.40;;;13.20;71.20;;;;;;5116052;28;20039;-48
2021/04/19 05:28:47;;;;;;;5.30;3.30;;;13.20;71.20;;;;;;5115142;28;20050;-46
2021/04/19 05:31:13;;;;;;;4.75;3.00;;;13.10;71.10;;;;;;5115717;28;20530;-47
2021/04/19 05:33:39;;;;;;;4.47;3.53;;;13.20;71.20;;;;;;5116416;28;20036;-49
2021/04/19 05:36:15;;;;;;;4.15;3.60;;;13.20;71.20;;;;;;5115815;28;20043;-47
2021/04/19 05:38:42;;;;;;;5.05;3.58;;;13.20;71.20;;;;;;5116161;28;20074;-45
2021/04/19 05:41:11;;;;;;;4.85;3.40;;;13.20;71.20;;;;;;5115626;28;20036;-47
2021/04/19 05:43:39;;;;;;;5.68;3.60;;;13.20;71.20;;;;;;5115599;28;20627;-47
2021/04/19 05:46:06;;;;;;;4.47;3.33;;;13.20;71.20;;;;;;5115750;28;20040;-51
2021/04/19 05:48:32;;;;;;;5.82;3.95;;;13.10;71.10;;;;;;5116037;28;20044;-49
2021/04/19 05:51:02;;;;;;;5.22;3.20;;;13.20;71.20;;;;;;5115655;28;20048;-48
2021/04/19 05:53:29;;;;;;;3.92;3.17;;;13.20;71.20;;;;;;5116144;28;20049;-51
2021/04/19 05:55:56;;;;;;;4.50;3.28;;;13.20;71.20;;;;;;5115471;28;20483;-47
2021/04/19 05:58:30;;;;;;;5.10;3.78;;;13.20;71.20;;;;;;5095760;28;20055;-47
2021/04/19 06:01:06;;;;;;;6.20;3.80;;;13.20;71.20;;;;;;5102110;28;20120;-45
2021/04/19 06:03:45;;;;;;;4.53;3.67;;;13.20;71.30;;;;;;5115993;28;20101;-45
2021/04/19 06:06:48;;;;;;;4.97;3.80;;;13.10;71.20;;;;;;5115550;28;20135;-49
2021/04/19 06:09:24;;;;;;;4.05;3.42;;;13.20;71.20;;;;;;5115841;28;20128;-50
2021/04/19 06:11:54;;;;;;;3.58;3.22;;;13.20;71.30;;;;;;5114989;28;20529;-49
2021/04/19 06:14:31;;;;;;;5.22;3.92;;;13.20;71.30;;;;;;5114692;28;20511;-53
2021/04/19 06:17:01;;;;;;;5.07;3.65;;;13.20;71.30;;;;;;5115398;28;20126;-51
2021/04/19 06:19:27;;;;;;;4.28;3.67;;;13.20;71.30;;;;;;5114825;28;20047;-48
2021/04/19 06:21:53;;;;;;;5.18;3.83;;;13.20;71.30;;;;;;5113002;28;20040;-47
2021/04/19 06:24:19;;;;;;;6.25;3.70;;;13.10;71.20;;;;;;5115053;28;20500;-51
2021/04/19 06:26:45;;;;;;;4.07;3.63;;;13.20;71.30;;;;;;5114612;28;20048;-49
2021/04/19 06:29:12;;;;;;;5.25;3.83;;;13.10;71.20;;;;;;5114612;28;20122;-50
2021/04/19 06:31:48;;;;;;;4.63;3.88;;;13.20;71.30;;;;;;5114327;28;20048;-48
2021/04/19 06:34:15;;;;;;;4.47;3.55;;;13.20;71.30;;;;;;5114716;28;20430;-51
2021/04/19 06:36:46;;;;;;;4.45;3.17;;;13.10;71.90;;;;;;5114908;28;20044;-48
2021/04/19 06:39:17;;;;;;;5.32;4.28;;;13.20;71.30;;;;;;5114793;28;20040;-48
2021/04/19 06:41:43;;;;;;;6.07;3.90;;;13.20;71.30;;;;;;5114656;28;20047;-51
2021/04/19 06:44:10;;;;;;;5.10;3.78;;;13.20;71.30;;;;;;5114777;28;20580;-46
2021/04/19 06:46:38;;;;;;;4.63;3.53;;;13.20;71.30;;;;;;5114728;28;20047;-47
2021/04/19 06:49:05;;;;;;;5.30;3.72;;;13.20;71.30;;;;;;5114460;28;20051;-44
2021/04/19 06:51:33;;;;;;;4.88;3.88;;;13.20;71.30;;;;;;5114423;28;20399;-47
2021/04/19 06:53:59;;;;;;;4.38;3.65;;;13.20;71.30;;;;;;5114876;28;20056;-44
2021/04/19 06:56:40;;;;;;;5.47;3.78;;;13.20;71.30;;;;;;5113760;28;20047;-47
2021/04/19 06:59:10;;;;;;;5.18;3.70;;;13.20;71.30;;;;;;5114742;28;20517;-51
2021/04/19 07:01:37;;;;;;;5.35;3.67;;;13.20;71.30;;;;;;5112367;28;20122;-48
2021/04/19 07:04:06;;;;;;;4.70;3.60;;;13.20;71.30;;;;;;5114311;28;20130;-50
2021/04/19 07:06:34;;;;;;;4.20;3.42;;;13.20;71.30;;;;;;5114374;28;20075;-49
2021/04/19 07:09:05;;;;;;;3.83;3.30;;;13.20;71.30;;;;;;5114560;28;20484;-52
2021/04/19 07:11:36;;;;;;;5.88;3.85;;;13.20;71.30;;;;;;5114150;28;20044;-50
2021/04/19 07:14:02;;;;;;;4.78;3.33;;;13.20;71.30;;;;;;5113848;28;20050;-37
2021/04/19 07:16:29;;;;;;;4.22;3.47;;;13.20;71.30;;;;;;5113851;28;20044;-41
2021/04/19 07:18:55;;;;;;;4.65;3.55;;;13.20;71.30;;;;;;5113764;28;20039;-46
2021/04/19 07:21:21;;;;;;;5.03;3.50;;;13.20;71.30;;;;;;5113610;28;20496;-45
2021/04/19 07:23:47;;;;;;;5.00;3.50;;;13.20;71.30;;;;;;5113945;28;20047;-46
2021/04/19 07:26:12;;;;;;;4.63;3.60;;;13.20;71.30;;;;;;5112271;28;20062;-45
2021/04/19 07:28:38;;;;;;;4.60;3.60;;;13.20;71.30;;;;;;5114008;28;20048;-46
2021/04/19 07:31:06;;;;;;;4.60;3.50;;;13.20;71.30;;;;;;5113423;28;20039;-45
2021/04/19 07:33:34;;;;;;;4.85;3.90;;;13.20;71.30;;;;;;5112820;28;20572;-45
2021/04/19 07:36:29;;;;;;;5.57;3.55;;;13.30;71.40;;;;;;5113315;28;20078;-43
2021/04/19 07:38:57;;;;;;;4.65;3.30;;;13.20;71.30;;;;;;5095903;28;20508;-45
2021/04/19 07:41:44;;;;;;;4.20;3.53;;;13.30;71.40;;;;;;5113792;28;20488;-45
2021/04/19 07:44:10;;;;;;;4.10;3.20;;;13.30;71.40;;;;;;5113409;28;20046;-47
2021/04/19 07:46:35;;;;;;;4.82;3.92;;;13.30;71.40;;;;;;5113472;28;20059;-46
2021/04/19 07:49:07;;;;;;;5.25;3.80;;;13.30;71.40;;;;;;5113249;28;20480;-41
2021/04/19 07:51:36;;;;;;;5.07;3.55;;;13.30;71.40;;;;;;5113495;28;20047;-44
2021/04/19 07:54:11;;;;;;;5.03;3.72;;;13.30;71.40;;;;;;5113609;28;20053;-44
2021/04/19 07:57:04;;;;;;;4.77;3.60;;;13.30;71.40;;;;;;5113426;28;20047;-48
2021/04/19 07:59:32;;;;;;;5.13;3.50;;;13.30;71.40;;;;;;5112850;28;20406;-52
2021/04/19 08:02:18;;;;;;;5.93;3.45;;;13.30;71.40;;;;;;5112744;28;20043;-43
2021/04/19 08:04:47;;;;;;;4.90;3.60;;;13.30;71.40;;;;;;5113201;28;20047;-46
2021/04/19 08:07:29;;;;;;;4.82;3.80;;;13.30;71.40;;;;;;5113608;28;20043;-44
2021/04/19 08:09:56;;;;;;;5.72;3.83;;;13.30;71.40;;;;;;5113201;28;20055;-46
2021/04/19 08:12:59;;;;;;;5.57;3.85;;;13.30;71.40;;;;;;5113552;28;20043;-49
2021/04/19 08:15:25;;;;;;;6.55;4.47;;;13.30;71.40;;;;;;5050397;28;20523;-46
2021/04/19 08:18:03;;;;;;;12.30;8.13;;;13.30;71.40;;;;;;5050077;28;20054;-47
2021/04/19 08:20:29;;;;;;;7.18;4.65;;;13.50;71.80;;;;;;5050287;28;20079;-45
2021/04/19 08:23:05;;;;;;;8.07;5.38;;;13.60;71.50;;;;;;5050657;28;20532;-45
2021/04/19 08:25:37;;;;;;;30.05;11.68;;;13.70;71.40;;;;;;5050576;28;20057;-45
2021/04/19 08:28:08;;;;;;;20.25;9.80;;;14.30;72.20;;;;;;5050166;28;20064;-48
2021/04/19 08:30:35;;;;;;;27.23;11.30;;;14.80;70.50;;;;;;5030706;28;20041;-48
2021/04/19 08:33:02;;;;;;;26.40;11.27;;;14.80;69.80;;;;;;5030578;28;20041;-44
2021/04/19 08:35:28;;;;;;;23.73;10.25;;;14.80;69.50;;;;;;5030219;28;20077;-49
2021/04/19 08:37:57;;;;;;;18.63;10.00;;;14.70;69.20;;;;;;5030365;28;20124;-46
2021/04/19 08:40:26;;;;;;;23.05;9.85;;;14.60;69.10;;;;;;5044952;28;20464;-47
2021/04/19 08:42:52;;;;;;;16.88;9.45;;;14.50;69.20;;;;;;5049981;28;20056;-50
2021/04/19 08:45:18;;;;;;;16.67;10.30;;;14.40;69.20;;;;;;5054314;28;20052;-47
2021/04/19 08:47:45;;;;;;;18.33;9.65;;;14.50;69.50;;;;;;5054541;28;20049;-46
2021/04/19 08:50:17;;;;;;;20.42;10.23;;;14.50;69.20;;;;;;5053654;28;20045;-44
2021/04/19 08:52:44;;;;;;;20.80;9.65;;;14.50;69.20;;;;;;5113426;28;20059;-45
2021/04/19 08:55:13;;;;;;;19.27;10.98;;;14.50;69.20;;;;;;5117086;28;20048;-43
2021/04/19 08:57:41;;;;;;;19.63;10.52;;;14.40;69.10;;;;;;5117108;28;20069;-44
2021/04/19 09:00:09;;;;;;;20.35;9.77;;;14.40;69.20;;;;;;5116641;28;20079;-42
2021/04/19 09:02:34;;;;;;;18.58;9.98;;;14.40;69.30;;;;;;5117214;28;20043;-44
2021/04/19 09:05:07;;;;;;;17.92;9.77;;;14.40;69.30;;;;;;5116909;28;20052;-47
2021/04/19 09:07:35;;;;;;;22.67;10.45;;;14.40;69.40;;;;;;5116285;28;20118;-43
2021/04/19 09:10:02;;;;;;;19.52;10.07;;;14.30;69.40;;;;;;5116656;28;20399;-44
2021/04/19 09:12:29;;;;;;;19.30;10.45;;;14.30;69.50;;;;;;5117076;28;20067;-42
2021/04/19 09:15:11;;;;;;;15.63;9.85;;;14.30;70.10;;;;;;5116642;28;20092;-46
2021/04/19 09:17:38;;;;;;;14.93;9.57;;;14.30;69.60;;;;;;5116694;28;20039;-47
2021/04/19 09:20:08;;;;;;;13.70;8.73;;;14.20;69.60;;;;;;5116882;28;20043;-44
2021/04/19 09:22:34;;;;;;;14.13;9.65;;;14.30;69.70;;;;;;5116305;27;20047;-44
2021/04/19 09:25:06;;;;;;;16.08;9.73;;;14.30;69.70;;;;;;5116202;28;20039;-45
2021/04/19 09:27:42;;;;;;;15.18;9.93;;;14.40;69.80;;;;;;5116833;28;20051;-41
2021/04/19 09:30:29;;;;;;;20.13;10.73;;;14.30;69.80;;;;;;5116360;28;20119;-44
2021/04/19 09:33:04;;;;;;;14.88;10.10;;;14.30;69.80;;;;;;5116277;28;20407;-45
2021/04/19 09:35:39;;;;;;;15.63;9.90;;;14.30;69.80;;;;;;5116357;28;20047;-44
2021/04/19 09:38:08;;;;;;;15.18;8.93;;;14.30;69.90;;;;;;5115652;28;20043;-41
2021/04/19 09:40:50;;;;;;;17.98;10.65;;;14.30;69.80;;;;;;5115699;28;20114;-45
2021/04/19 09:43:39;;;;;;;17.80;12.48;;;14.30;69.90;;;;;;5114177;28;20067;-50
2021/04/19 09:46:04;;;;;;;17.88;12.38;;;14.70;71.40;;;;;;5115634;28;20051;-45
2021/04/19 09:48:38;;;;;;;16.33;11.40;;;16.40;70.10;;;;;;5116533;28;20066;-48
2021/04/19 09:51:16;;;;;;;20.00;11.23;;;16.90;67.40;;;;;;5116231;28;20055;-58
2021/04/19 09:53:50;;;;;;;13.85;11.32;;;16.90;66.00;;;;;;5115505;28;20050;-54
2021/04/19 09:56:21;;;;;;;16.63;10.90;;;16.60;65.50;;;;;;5115363;28;20484;-56
2021/04/19 09:58:47;;;;;;;18.30;12.00;;;16.50;65.40;;;;;;5116026;28;20055;-48
2021/04/19 10:01:13;;;;;;;16.08;11.68;;;16.40;65.40;;;;;;5115891;28;20089;-52
2021/04/19 10:03:39;;;;;;;18.40;11.45;;;16.20;65.50;;;;;;5115783;28;20047;-58
2021/04/19 10:06:06;;;;;;;16.38;11.45;;;16.00;65.60;;;;;;5113700;28;20040;-55
2021/04/19 10:08:39;;;;;;;15.45;11.65;;;15.90;65.70;;;;;;5115288;28;20055;-57
2021/04/19 10:11:06;;;;;;;13.73;10.65;;;15.80;65.90;;;;;;5115864;28;20051;-61
2021/04/19 10:13:39;;;;;;;24.02;13.90;;;15.70;66.10;;;;;;5115959;28;20079;-51
2021/04/19 10:16:09;;;;;;;19.42;11.43;;;15.60;66.20;;;;;;5114664;28;20108;-52
2021/04/19 10:18:37;;;;;;;16.27;11.40;;;15.60;66.30;;;;;;5114871;28;20438;-54
2021/04/19 10:21:04;;;;;;;14.55;11.90;;;15.60;66.40;;;;;;5110775;28;20071;-54
2021/04/19 10:23:35;;;;;;;16.05;11.45;;;15.50;66.50;;;;;;5110868;28;20510;-53
2021/04/19 10:26:02;;;;;;;15.57;11.00;;;15.50;66.60;;;;;;5112620;28;20039;-50
2021/04/19 10:28:33;;;;;;;15.98;11.43;;;15.40;66.60;;;;;;5113828;28;20071;-52
2021/04/19 10:31:13;;;;;;;18.77;12.95;;;15.40;66.70;;;;;;5112193;28;20039;-53
2021/04/19 10:33:43;;;;;;;19.27;11.00;;;15.40;66.90;;;;;;5115033;28;20392;-53
2021/04/19 10:36:26;;;;;;;19.27;12.07;;;15.30;67.00;;;;;;5114557;28;20067;-54
2021/04/19 10:38:54;;;;;;;24.90;13.95;;;15.30;67.10;;;;;;5115014;28;20047;-53
2021/04/19 10:41:36;;;;;;;20.25;12.90;;;15.30;67.10;;;;;;5113771;28;20043;-52
2021/04/19 10:44:05;;;;;;;17.88;13.02;;;15.30;67.10;;;;;;5114287;28;20407;-46
2021/04/19 10:46:33;;;;;;;16.15;12.35;;;15.30;67.20;;;;;;5114684;28;20055;-53
2021/04/19 10:49:00;;;;;;;18.25;12.25;;;15.30;67.30;;;;;;5113983;28;20071;-50
2021/04/19 10:51:28;;;;;;;18.77;12.55;;;15.30;67.30;;;;;;5113143;28;20089;-53
2021/04/19 10:53:57;;;;;;;14.80;11.18;;;15.30;67.30;;;;;;5114077;28;20070;-53
2021/04/19 10:56:26;;;;;;;17.83;11.15;;;15.20;67.30;;;;;;5114435;28;20047;-52
2021/04/19 10:58:55;;;;;;;16.38;11.45;;;15.30;67.50;;;;;;5113556;28;20047;-48
2021/04/19 11:01:24;;;;;;;18.63;12.68;;;15.30;67.50;;;;;;5114498;28;20050;-53
2021/04/19 11:03:50;;;;;;;18.42;12.27;;;15.30;67.50;;;;;;5114366;28;20472;-49
2021/04/19 11:06:16;;;;;;;17.05;12.32;;;15.30;67.60;;;;;;5113575;28;20051;-51
2021/04/19 11:08:49;;;;;;;14.80;10.52;;;15.30;67.70;;;;;;5112989;28;20515;-49
2021/04/19 11:11:25;;;;;;;18.13;11.75;;;15.30;67.70;;;;;;5114073;28;20047;-51
2021/04/19 11:13:52;;;;;;;18.95;11.55;;;15.30;67.70;;;;;;5113602;28;20050;-50
2021/04/19 11:16:22;;;;;;;16.98;10.98;;;15.30;67.70;;;;;;5114121;28;20392;-54
2021/04/19 11:18:50;;;;;;;14.55;11.00;;;15.30;67.80;;;;;;5113679;28;20032;-48
2021/04/19 11:21:32;;;;;;;16.77;11.32;;;15.30;67.80;;;;;;5113432;28;20389;-48
2021/04/19 11:24:10;;;;;;;15.85;10.57;;;15.30;67.80;;;;;;5093705;28;20051;-51
2021/04/19 11:26:36;;;;;;;15.20;10.57;;;15.30;67.90;;;;;;5093710;28;20074;-49
2021/04/19 11:29:11;;;;;;;14.40;10.60;;;15.30;67.90;;;;;;5130487;27;20973;-53
2021/04/19 11:31:43;;;;;;;14.80;10.25;;;15.30;67.90;;;;;;5123165;28;20507;-52
2021/04/19 11:34:11;;;;;;;13.25;10.07;;;15.30;67.90;;;;;;5108539;28;20055;-52
2021/04/19 11:36:42;;;;;;;14.30;10.18;;;15.30;67.90;;;;;;5109592;28;20051;-52
2021/04/19 11:39:19;;;;;;;15.60;10.07;;;15.30;67.90;;;;;;5107418;28;20050;-53
2021/04/19 11:41:49;;;;;;;16.00;11.07;;;15.40;68.00;;;;;;5109852;28;20055;-53
2021/04/19 11:44:16;;;;;;;15.02;9.90;;;15.30;67.90;;;;;;5109095;28;20054;-53
2021/04/19 11:46:47;;;;;;;13.38;10.23;;;15.30;68.00;;;;;;5111191;28;20065;-53
2021/04/19 11:49:18;;;;;;;14.52;10.63;;;15.40;68.00;;;;;;5109055;28;20130;-47
2021/04/19 11:51:44;;;;;;;15.43;11.15;;;15.20;67.90;;;;;;5108555;28;20040;-54
2021/04/19 11:54:11;;;;;;;14.38;10.00;;;15.30;68.00;;;;;;5109806;28;20071;-54
2021/04/19 11:56:38;;;;;;;15.15;10.25;;;15.40;68.10;;;;;;5109502;28;20036;-49
2021/04/19 11:59:04;;;;;;;15.10;10.43;;;15.40;68.10;;;;;;5104880;28;20407;-49
2021/04/19 12:01:29;;;;;;;11.90;9.70;;;15.40;68.10;;;;;;5104076;28;20087;-46
2021/04/19 12:03:56;;;;;;;15.15;10.13;;;15.40;68.10;;;;;;5107528;28;20071;-49
2021/04/19 12:06:23;;;;;;;12.00;9.55;;;15.40;68.10;;;;;;5106808;28;20046;-49
2021/04/19 12:08:50;;;;;;;12.30;9.63;;;15.40;68.10;;;;;;5108476;28;20058;-55
2021/04/19 12:11:18;;;;;;;14.45;9.77;;;15.40;68.80;;;;;;5108995;28;20032;-54
2021/04/19 12:13:45;;;;;;;12.75;9.07;;;15.50;68.20;;;;;;5108713;28;20043;-54
2021/04/19 12:16:12;;;;;;;13.50;10.13;;;15.40;68.10;;;;;;5109486;28;20048;-54
2021/04/19 12:18:37;;;;;;;13.48;10.43;;;15.40;68.10;;;;;;5109286;28;20035;-51
2021/04/19 12:21:06;;;;;;;15.77;10.38;;;15.40;68.00;;;;;;5109611;28;20059;-49
2021/04/19 12:23:34;;;;;;;11.35;9.38;;;15.40;68.00;;;;;;5109739;28;20055;-49
2021/04/19 12:26:00;;;;;;;14.45;10.05;;;15.40;68.10;;;;;;5109081;28;20449;-50
2021/04/19 12:28:27;;;;;;;12.25;9.27;;;15.40;68.10;;;;;;5109191;28;20133;-51
2021/04/19 12:30:54;;;;;;;12.57;8.95;;;15.50;68.10;;;;;;5109353;28;20134;-50
2021/04/19 12:33:21;;;;;;;13.63;9.23;;;15.40;68.10;;;;;;5109353;28;20076;-49
2021/04/19 12:35:47;;;;;;;13.68;9.05;;;15.40;68.10;;;;;;5109043;28;20040;-48
2021/04/19 12:38:13;;;;;;;11.85;9.50;;;15.40;68.10;;;;;;5109502;28;20067;-50
2021/04/19 12:40:40;;;;;;;11.93;8.32;;;15.40;68.10;;;;;;5094887;28;20515;-48
2021/04/19 12:43:05;;;;;;;12.63;8.82;;;15.40;68.20;;;;;;5095623;28;20106;-45
2021/04/19 12:45:32;;;;;;;11.00;8.07;;;15.40;68.20;;;;;;5095434;28;20055;-50
2021/04/19 12:48:01;;;;;;;12.82;9.13;;;15.40;68.20;;;;;;5095365;28;20525;-53
2021/04/19 12:50:27;;;;;;;13.73;9.32;;;15.40;68.20;;;;;;5095882;28;20112;-49
2021/04/19 12:52:52;;;;;;;11.48;8.23;;;15.40;68.20;;;;;;5095520;28;20051;-48